createdAt,value
2022-08-16T00:01:19.045Z,1.20
2022-08-16T00:03:46.785Z,1.25
2022-08-16T00:06:15.886Z,0.90
2022-08-16T00:08:45.934Z,1.10
2022-08-16T00:11:15.492Z,1.10
2022-08-16T00:13:53.961Z,1.10
2022-08-16T00:17:01.607Z,1.20
2022-08-16T00:19:13.946Z,1.40
2022-08-16T00:21:43.487Z,1.10
2022-08-16T00:24:12.314Z,1.38
2022-08-16T00:26:45.193Z,1.10
2022-08-16T00:29:15.565Z,1.00
2022-08-16T00:31:58.957Z,1.10
2022-08-16T00:34:44.300Z,1.10
2022-08-16T00:37:20.588Z,1.13
2022-08-16T00:39:57.247Z,1.00
2022-08-16T00:42:30.434Z,1.02
2022-08-16T00:45:08.176Z,1.20
2022-08-16T00:47:36.905Z,1.13
2022-08-16T00:50:11.353Z,1.30
2022-08-16T00:52:45.826Z,1.15
2022-08-16T00:55:22.269Z,1.20
2022-08-16T00:58:00.016Z,1.17
2022-08-16T01:00:29.217Z,1.13
2022-08-16T01:02:57.421Z,1.20
2022-08-16T01:05:25.474Z,1.40
2022-08-16T01:07:54.630Z,1.20
2022-08-16T01:10:31.262Z,1.25
2022-08-16T01:13:04.520Z,1.30
2022-08-16T01:15:33.872Z,1.00
2022-08-16T01:18:05.842Z,1.15
2022-08-16T01:20:33.990Z,1.08
2022-08-16T01:23:08.480Z,1.40
2022-08-16T01:25:39.809Z,1.10
2022-08-16T01:28:11.378Z,1.00
2022-08-16T01:30:50.547Z,1.23
2022-08-16T01:33:19.345Z,1.30
2022-08-16T01:35:52.510Z,1.10
2022-08-16T01:38:25.798Z,1.30
2022-08-16T01:41:01.953Z,1.38
2022-08-16T01:43:31.282Z,1.38
2022-08-16T01:46:30.193Z,1.25
2022-08-16T01:48:48.816Z,1.30
2022-08-16T01:51:19.491Z,1.40
2022-08-16T01:53:55.361Z,1.30
2022-08-16T01:56:25.811Z,1.30
2022-08-16T01:58:54.796Z,1.20
2022-08-16T02:01:22.770Z,1.25
2022-08-16T02:03:51.896Z,1.30
2022-08-16T02:06:34.520Z,1.50
2022-08-16T02:09:06.190Z,1.48
2022-08-16T02:11:47.847Z,1.20
2022-08-16T02:14:21.627Z,1.40
2022-08-16T02:16:49.642Z,1.50
2022-08-16T02:19:18.394Z,1.50
2022-08-16T02:22:07.912Z,1.52
2022-08-16T02:24:42.129Z,1.50
2022-08-16T02:27:11.762Z,1.27
2022-08-16T02:29:41.364Z,1.33
2022-08-16T02:32:49.309Z,1.50
2022-08-16T02:34:57.746Z,1.50
2022-08-16T02:37:51.198Z,1.40
2022-08-16T02:40:16.388Z,1.52
2022-08-16T02:42:45.528Z,1.20
2022-08-16T02:45:15.853Z,1.35
2022-08-16T02:48:00.165Z,1.40
2022-08-16T02:50:53.831Z,1.42
2022-08-16T02:53:18.039Z,1.42
2022-08-16T02:55:46.194Z,1.30
2022-08-16T02:58:19.901Z,1.40
2022-08-16T03:00:53.088Z,1.40
2022-08-16T03:03:24.820Z,1.30
2022-08-16T03:05:53.160Z,1.40
2022-08-16T03:08:51.971Z,1.48
2022-08-16T03:11:16.849Z,1.33
2022-08-16T03:13:47.754Z,1.33
2022-08-16T03:16:32.849Z,1.50
2022-08-16T03:19:06.406Z,1.50
2022-08-16T03:21:37.772Z,1.50
2022-08-16T03:24:27.611Z,1.40
2022-08-16T03:26:54.197Z,1.60
2022-08-16T03:29:30.067Z,1.30
2022-08-16T03:31:58.985Z,1.40
2022-08-16T03:34:27.354Z,1.50
2022-08-16T03:36:55.719Z,1.50
2022-08-16T03:39:23.653Z,1.52
2022-08-16T03:41:59.963Z,1.80
2022-08-16T03:44:43.527Z,1.60
2022-08-16T03:47:12.537Z,1.42
2022-08-16T03:49:40.924Z,1.67
2022-08-16T03:52:09.979Z,1.45
2022-08-16T03:54:37.726Z,1.50
2022-08-16T03:57:05.942Z,1.50
2022-08-16T03:59:43.533Z,1.42
2022-08-16T04:02:22.818Z,1.27
2022-08-16T04:04:59.496Z,1.50
2022-08-16T04:07:27.146Z,1.48
2022-08-16T04:10:33.919Z,1.40
2022-08-16T04:12:53.962Z,1.30
2022-08-16T04:15:26.295Z,1.38
2022-08-16T04:17:54.880Z,1.40
2022-08-16T04:20:29.573Z,1.40
2022-08-16T04:23:01.993Z,1.60
2022-08-16T04:25:30.166Z,1.48
2022-08-16T04:28:52.309Z,1.27
2022-08-16T04:30:48.287Z,1.30
2022-08-16T04:33:18.232Z,1.52
2022-08-16T04:35:55.357Z,1.60
2022-08-16T04:38:24.567Z,1.40
2022-08-16T04:40:52.261Z,1.60
2022-08-16T04:43:22.073Z,1.60
2022-08-16T04:46:00.007Z,1.60
2022-08-16T04:48:32.739Z,1.83
2022-08-16T04:51:01.913Z,1.70
2022-08-16T04:53:41.369Z,1.40
2022-08-16T04:56:11.527Z,1.60
2022-08-16T04:58:46.039Z,1.77
2022-08-16T05:01:17.654Z,1.70
2022-08-16T05:03:59.792Z,1.60
2022-08-16T05:06:42.224Z,1.40
2022-08-16T05:09:13.448Z,1.52
2022-08-16T05:11:41.193Z,1.50
2022-08-16T05:14:09.101Z,1.90
2022-08-16T05:16:38.125Z,1.55
2022-08-16T05:19:11.745Z,1.60
2022-08-16T05:21:44.101Z,1.60
2022-08-16T05:24:14.109Z,1.77
2022-08-16T05:26:51.574Z,1.80
2022-08-16T05:29:20.579Z,1.65
2022-08-16T05:31:53.220Z,1.73
2022-08-16T05:34:22.402Z,1.70
2022-08-16T05:36:51.307Z,1.80
2022-08-16T05:39:20.678Z,1.73
2022-08-16T05:41:51.860Z,1.60
2022-08-16T05:44:23.732Z,1.67
2022-08-16T05:46:54.653Z,1.70
2022-08-16T05:49:23.257Z,1.63
2022-08-16T05:51:51.172Z,1.60
2022-08-16T05:54:25.265Z,1.67
2022-08-16T05:56:53.586Z,1.63
2022-08-16T05:59:22.075Z,1.70
2022-08-16T06:01:50.591Z,1.58
2022-08-16T06:04:34.787Z,1.67
2022-08-16T06:07:07.487Z,1.70
2022-08-16T06:09:37.137Z,1.90
2022-08-16T06:12:12.061Z,1.58
2022-08-16T06:14:40.021Z,1.70
2022-08-16T06:17:07.934Z,1.70
2022-08-16T06:19:38.155Z,1.90
2022-08-16T06:22:09.257Z,2.00
2022-08-16T06:24:54.572Z,1.67
2022-08-16T06:27:23.427Z,1.80
2022-08-16T06:29:51.571Z,1.90
2022-08-16T06:32:27.893Z,1.85
2022-08-16T06:35:02.053Z,1.65
2022-08-16T06:37:37.472Z,1.90
2022-08-16T06:40:13.038Z,1.67
2022-08-16T06:42:47.857Z,1.90
2022-08-16T06:45:16.055Z,1.77
2022-08-16T06:47:53.544Z,2.10
2022-08-16T06:50:29.305Z,2.00
2022-08-16T06:53:01.157Z,1.85
2022-08-16T06:55:38.357Z,2.30
2022-08-16T06:58:08.507Z,1.90
2022-08-16T07:00:50.409Z,1.92
2022-08-16T07:03:28.136Z,2.00
2022-08-16T07:05:57.959Z,2.05
2022-08-16T07:08:27.440Z,1.73
2022-08-16T07:10:55.386Z,1.90
2022-08-16T07:13:58.452Z,2.00
2022-08-16T07:16:14.490Z,1.98
2022-08-16T07:18:59.177Z,2.10
2022-08-16T07:21:45.847Z,1.98
2022-08-16T07:24:29.707Z,1.98
2022-08-16T07:26:58.377Z,2.10
2022-08-16T07:29:26.073Z,1.90
2022-08-16T07:31:53.735Z,1.70
2022-08-16T07:34:35.269Z,2.40
2022-08-16T07:37:08.351Z,2.00
2022-08-16T07:39:42.904Z,2.30
2022-08-16T07:42:10.824Z,2.38
2022-08-16T07:44:53.655Z,1.98
2022-08-16T07:47:24.528Z,2.20
2022-08-16T07:49:57.765Z,2.20
2022-08-16T07:52:30.014Z,2.42
2022-08-16T07:54:57.954Z,2.78
2022-08-16T07:57:26.329Z,2.40
2022-08-16T07:59:57.072Z,2.50
2022-08-16T08:02:27.333Z,2.10
2022-08-16T08:04:55.365Z,2.50
2022-08-16T08:07:23.056Z,2.75
2022-08-16T08:09:57.541Z,2.40
2022-08-16T08:12:31.336Z,2.40
2022-08-16T08:15:00.611Z,2.28
2022-08-16T08:17:43.182Z,2.63
2022-08-16T08:20:13.290Z,2.33
2022-08-16T08:22:52.338Z,2.80
2022-08-16T08:25:55.324Z,2.58
2022-08-16T08:28:17.090Z,3.00
2022-08-16T08:30:51.760Z,2.50
2022-08-16T08:33:29.355Z,2.90
2022-08-16T08:35:57.325Z,2.75
2022-08-16T08:38:45.902Z,2.70
2022-08-16T08:41:18.347Z,3.10
2022-08-16T08:43:46.796Z,2.92
2022-08-16T08:46:21.369Z,2.92
2022-08-16T08:48:59.686Z,2.90
2022-08-16T08:51:35.631Z,2.90
2022-08-16T08:54:06.764Z,2.90
2022-08-16T08:56:37.311Z,3.17
2022-08-16T08:59:13.476Z,3.08
2022-08-16T09:01:56.464Z,2.88
2022-08-16T09:04:26.697Z,2.90
2022-08-16T09:06:54.606Z,3.08
2022-08-16T09:09:22.294Z,2.90
2022-08-16T09:12:00.253Z,3.00
2022-08-16T09:14:34.344Z,3.15
2022-08-16T09:17:12.001Z,3.00
2022-08-16T09:19:53.778Z,2.90
2022-08-16T09:22:24.593Z,3.15
2022-08-16T09:24:58.131Z,3.42
2022-08-16T09:27:57.369Z,3.42
2022-08-16T09:30:33.444Z,3.25
2022-08-16T09:33:04.176Z,3.40
2022-08-16T09:35:34.549Z,3.20
2022-08-16T09:38:05.166Z,2.92
2022-08-16T09:40:43.748Z,3.35
2022-08-16T09:43:44.815Z,3.28
2022-08-16T09:46:02.703Z,3.20
2022-08-16T09:48:44.434Z,3.30
2022-08-16T09:51:18.520Z,3.22
2022-08-16T09:53:53.828Z,3.20
2022-08-16T09:56:26.594Z,3.72
2022-08-16T09:59:05.415Z,3.40
2022-08-16T10:01:36.216Z,3.55
2022-08-16T10:04:08.164Z,3.50
2022-08-16T10:06:52.729Z,3.50
2022-08-16T10:09:21.330Z,3.50
2022-08-16T10:12:11.449Z,3.40
2022-08-16T10:14:48.160Z,22.73
2022-08-16T10:17:16.633Z,25.50
2022-08-16T10:19:47.022Z,17.05
2022-08-16T10:22:18.204Z,13.93
2022-08-16T10:24:55.704Z,12.57
2022-08-16T10:27:29.758Z,12.18
2022-08-16T10:30:24.948Z,12.77
2022-08-16T10:32:53.973Z,12.25
2022-08-16T10:35:21.586Z,11.20
2022-08-16T10:37:52.462Z,11.07
2022-08-16T10:40:29.246Z,10.73
2022-08-16T10:42:59.888Z,9.40
2022-08-16T10:45:29.080Z,9.02
2022-08-16T10:48:06.307Z,9.00
2022-08-16T10:50:56.011Z,8.75
2022-08-16T10:53:26.446Z,7.60
2022-08-16T10:56:01.419Z,8.20
2022-08-16T10:58:34.473Z,8.43
2022-08-16T11:03:54.389Z,7.70
2022-08-16T11:06:28.045Z,7.78
2022-08-16T11:14:33.653Z,6.68
2022-08-16T11:17:10.896Z,6.30
2022-08-16T11:20:36.691Z,6.20
2022-08-16T11:22:48.556Z,6.80
2022-08-16T11:26:07.428Z,6.65
2022-08-16T11:28:05.626Z,5.80
2022-08-16T11:30:38.574Z,5.82
2022-08-16T11:33:08.885Z,5.57
2022-08-16T11:36:22.516Z,5.95
2022-08-16T11:38:51.974Z,5.65
2022-08-16T11:41:14.022Z,5.70
2022-08-16T11:43:41.824Z,6.57
2022-08-16T11:46:45.381Z,5.70
2022-08-16T11:49:00.818Z,5.68
2022-08-16T11:51:28.452Z,5.65
2022-08-16T11:53:56.055Z,5.25
2022-08-16T11:56:39.700Z,5.90
2022-08-16T11:59:12.786Z,5.10
2022-08-16T12:01:44.480Z,5.70
2022-08-16T12:04:28.230Z,4.88
2022-08-16T12:06:55.946Z,5.07
2022-08-16T12:09:24.056Z,5.22
2022-08-16T12:11:53.340Z,5.10
2022-08-16T12:14:22.799Z,5.10
2022-08-16T12:16:55.777Z,5.45
2022-08-16T12:19:33.688Z,4.97
2022-08-16T12:22:05.344Z,4.93
2022-08-16T12:24:51.118Z,4.47
2022-08-16T12:27:40.980Z,5.13
2022-08-16T12:30:21.391Z,5.00
2022-08-16T12:32:54.810Z,5.13
2022-08-16T12:35:25.556Z,5.35
2022-08-16T12:37:56.555Z,4.90
2022-08-16T12:40:29.147Z,4.82
2022-08-16T12:42:58.841Z,4.95
2022-08-16T12:45:28.617Z,5.15
2022-08-16T12:48:33.549Z,5.47
2022-08-16T12:51:02.905Z,5.00
2022-08-16T12:53:34.310Z,5.13
2022-08-16T12:56:07.834Z,5.22
2022-08-16T12:58:48.330Z,4.75
2022-08-16T13:01:17.977Z,5.50
2022-08-16T13:03:46.314Z,5.35
2022-08-16T13:06:14.220Z,5.40
2022-08-16T13:08:49.308Z,5.20
2022-08-16T13:11:17.966Z,5.55
2022-08-16T13:13:45.613Z,5.85
2022-08-16T13:16:20.077Z,5.88
2022-08-16T13:18:55.038Z,5.55
2022-08-16T13:21:23.761Z,5.47
2022-08-16T13:23:55.481Z,5.63
2022-08-16T13:26:24.014Z,5.90
2022-08-16T13:28:51.694Z,5.63
2022-08-16T13:31:19.316Z,6.00
2022-08-16T13:33:46.993Z,5.75
2022-08-16T13:36:32.183Z,5.85
2022-08-16T13:39:04.079Z,5.95
2022-08-16T13:41:32.121Z,5.60
2022-08-16T13:44:00.440Z,5.68
2022-08-16T13:46:28.778Z,5.40
2022-08-16T13:48:57.788Z,5.90
2022-08-16T13:51:29.397Z,5.60
2022-08-16T13:54:03.881Z,6.30
2022-08-16T13:56:38.841Z,5.70
2022-08-16T13:59:19.396Z,5.90
2022-08-16T14:01:55.405Z,5.00
2022-08-16T14:04:26.389Z,5.75
2022-08-16T14:06:55.006Z,5.10
2022-08-16T14:09:24.147Z,4.70
2022-08-16T14:11:53.354Z,4.43
2022-08-16T14:14:28.367Z,5.30
2022-08-16T14:16:56.609Z,5.22
2022-08-16T14:19:24.340Z,5.57
2022-08-16T14:22:13.618Z,5.63
2022-08-16T14:24:45.282Z,5.43
2022-08-16T14:27:17.056Z,5.78
2022-08-16T14:29:44.927Z,5.53
2022-08-16T14:32:21.898Z,6.30
2022-08-16T14:35:00.870Z,6.15
2022-08-16T14:37:28.496Z,5.75
2022-08-16T14:39:58.803Z,5.38
2022-08-16T14:42:28.908Z,5.93
2022-08-16T14:44:57.092Z,5.22
2022-08-16T14:47:25.135Z,5.68
2022-08-16T14:50:01.651Z,5.57
2022-08-16T14:52:54.086Z,5.65
2022-08-16T14:55:17.329Z,5.63
2022-08-16T14:57:46.301Z,5.65
2022-08-16T15:00:18.087Z,5.72
2022-08-16T15:02:46.009Z,6.25
2022-08-16T15:05:14.475Z,6.05
2022-08-16T15:07:42.109Z,5.80
2022-08-16T15:10:12.097Z,6.22
2022-08-16T15:12:55.465Z,6.55
2022-08-16T15:15:24.315Z,6.28
2022-08-16T15:17:56.514Z,6.28
2022-08-16T15:20:26.127Z,5.82
2022-08-16T15:22:54.157Z,5.93
2022-08-16T15:25:29.412Z,5.88
2022-08-16T15:28:02.244Z,5.70
2022-08-16T15:30:56.869Z,5.93
2022-08-16T15:33:19.615Z,6.20
2022-08-16T15:35:50.013Z,6.20
2022-08-16T15:39:03.065Z,6.35
2022-08-16T15:42:27.335Z,5.72
2022-08-16T15:44:58.586Z,5.90
2022-08-16T15:47:27.294Z,6.60
2022-08-16T15:49:56.010Z,6.43
2022-08-16T15:52:29.121Z,6.50
2022-08-16T15:54:57.302Z,6.32
2022-08-16T15:57:25.360Z,5.80
2022-08-16T15:59:56.097Z,5.85
2022-08-16T16:02:33.523Z,6.13
2022-08-16T16:05:02.530Z,5.97
2022-08-16T16:07:33.741Z,6.50
2022-08-16T16:10:02.433Z,6.20
2022-08-16T16:12:53.237Z,6.18
2022-08-16T16:15:18.541Z,6.45
2022-08-16T16:17:51.195Z,6.00
2022-08-16T16:20:20.666Z,6.20
2022-08-16T16:22:49.242Z,6.20
2022-08-16T16:25:17.777Z,6.70
2022-08-16T16:27:46.519Z,5.65
2022-08-16T16:30:37.422Z,5.82
2022-08-16T16:33:15.825Z,5.10
2022-08-16T16:35:55.204Z,5.47
2022-08-16T16:38:26.501Z,5.90
2022-08-16T16:40:54.688Z,6.00
2022-08-16T16:43:25.553Z,6.03
2022-08-16T16:45:58.219Z,6.32
2022-08-16T16:48:29.671Z,6.10
2022-08-16T16:51:06.068Z,6.05
2022-08-16T16:53:37.599Z,6.00
2022-08-16T16:56:08.833Z,6.15
2022-08-16T16:59:01.378Z,6.10
2022-08-16T17:01:46.550Z,6.18
2022-08-16T17:04:23.824Z,5.97
2022-08-16T17:06:58.865Z,5.78
2022-08-16T17:09:27.090Z,5.75
2022-08-16T17:11:55.732Z,6.18
2022-08-16T17:14:42.657Z,11.68
2022-08-16T17:17:11.572Z,17.88
2022-08-16T17:19:42.415Z,26.23
2022-08-16T17:22:14.724Z,27.33
2022-08-16T17:24:45.055Z,18.77
2022-08-16T17:30:00.930Z,14.07
2022-08-16T17:32:34.243Z,12.10
2022-08-16T17:35:18.381Z,10.77
2022-08-16T17:39:26.770Z,13.65
2022-08-16T17:39:27.327Z,10.07
2022-08-16T17:40:47.200Z,9.63
2022-08-16T17:43:28.534Z,9.07
2022-08-16T17:45:56.939Z,8.15
2022-08-16T17:48:25.393Z,8.20
2022-08-16T17:50:55.032Z,7.90
2022-08-16T17:53:22.951Z,7.00
2022-08-16T17:55:51.075Z,6.93
2022-08-16T17:58:22.686Z,6.75
2022-08-16T18:00:53.021Z,6.97
2022-08-16T18:04:07.803Z,6.32
2022-08-16T18:06:15.147Z,6.88
2022-08-16T18:08:42.974Z,6.95
2022-08-16T18:11:13.230Z,6.35
2022-08-16T18:13:43.358Z,6.57
2022-08-16T18:16:11.698Z,6.20
2022-08-16T18:18:42.001Z,6.05
2022-08-16T18:21:27.896Z,6.38
2022-08-16T18:23:57.651Z,6.00
2022-08-16T18:26:25.792Z,6.60
2022-08-16T18:28:53.625Z,6.65
2022-08-16T18:31:21.703Z,6.40
2022-08-16T18:33:54.753Z,5.75
2022-08-16T18:36:23.882Z,5.57
2022-08-16T18:38:51.853Z,6.18
2022-08-16T18:41:21.820Z,6.05
2022-08-16T18:44:23.717Z,6.22
2022-08-16T18:46:37.064Z,6.00
2022-08-16T18:49:05.225Z,5.80
2022-08-16T18:51:32.910Z,5.88
2022-08-16T18:54:00.555Z,5.63
2022-08-16T18:56:57.040Z,5.60
2022-08-16T18:59:17.193Z,6.15
2022-08-16T19:01:44.943Z,5.75
2022-08-16T19:04:56.080Z,6.43
2022-08-16T19:07:00.183Z,6.45
2022-08-16T19:09:27.800Z,6.10
2022-08-16T19:11:56.781Z,7.00
2022-08-16T19:14:29.913Z,6.63
2022-08-16T19:16:57.544Z,6.93
2022-08-16T19:19:25.187Z,6.93
2022-08-16T19:21:52.840Z,6.95
2022-08-16T19:24:20.444Z,7.00
2022-08-16T19:26:50.405Z,6.82
2022-08-16T19:29:19.367Z,6.63
2022-08-16T19:31:47.098Z,6.95
2022-08-16T19:34:16.258Z,7.40
2022-08-16T19:36:43.894Z,7.07
2022-08-16T19:39:13.923Z,7.40
2022-08-16T19:41:42.854Z,7.28
2022-08-16T19:44:10.643Z,7.20
2022-08-16T19:46:41.604Z,7.70
2022-08-16T19:49:09.272Z,7.43
2022-08-16T19:51:37.662Z,6.75
2022-08-16T19:54:05.694Z,6.72
2022-08-16T19:56:33.322Z,6.93
2022-08-16T20:01:51.637Z,5.90
2022-08-16T20:04:19.540Z,6.22
2022-08-16T20:06:47.312Z,6.05
2022-08-16T20:09:16.020Z,5.60
2022-08-16T20:11:44.564Z,6.22
2022-08-16T20:14:12.242Z,5.65
2022-08-16T20:16:54.784Z,5.57
2022-08-16T20:19:22.535Z,5.35
2022-08-16T20:21:50.166Z,5.30
2022-08-16T20:24:33.539Z,5.38
2022-08-16T20:27:02.242Z,5.45
2022-08-16T20:29:29.931Z,5.32
2022-08-16T20:31:58.976Z,4.63
2022-08-16T20:34:26.601Z,4.90
2022-08-16T20:36:54.228Z,5.15
2022-08-16T20:39:23.939Z,4.70
2022-08-16T20:41:51.817Z,5.10
2022-08-16T20:44:22.826Z,5.07
2022-08-16T20:46:52.584Z,4.82
2022-08-16T20:49:21.613Z,5.40
2022-08-16T20:51:52.613Z,4.82
2022-08-16T20:54:22.464Z,5.07
2022-08-16T20:56:50.130Z,4.75
2022-08-16T20:59:17.893Z,5.03
2022-08-16T21:01:50.065Z,4.97
2022-08-16T21:04:18.935Z,5.07
2022-08-16T21:06:53.796Z,5.10
2022-08-16T21:09:22.321Z,5.00
2022-08-16T21:11:50.725Z,5.10
2022-08-16T21:14:18.414Z,4.82
2022-08-16T21:16:46.036Z,4.85
2022-08-16T21:19:13.694Z,4.65
2022-08-16T21:21:41.319Z,4.32
2022-08-16T21:24:10.442Z,4.40
2022-08-16T21:26:39.113Z,4.00
2022-08-16T21:29:09.668Z,4.80
2022-08-16T21:31:40.262Z,4.50
2022-08-16T21:34:08.021Z,4.50
2022-08-16T21:36:36.593Z,4.07
2022-08-16T21:39:06.468Z,4.35
2022-08-16T21:41:35.918Z,4.60
2022-08-16T21:44:03.901Z,4.28
2022-08-16T21:46:33.559Z,4.45
2022-08-16T21:49:01.181Z,3.90
2022-08-16T21:51:28.799Z,4.30
2022-08-16T21:53:56.771Z,3.80
2022-08-16T21:56:24.421Z,4.13
2022-08-16T21:58:53.755Z,4.43
2022-08-16T22:01:22.677Z,4.00
2022-08-16T22:04:09.682Z,3.83
2022-08-16T22:06:38.237Z,4.05
2022-08-16T22:09:06.052Z,4.00
2022-08-16T22:11:33.646Z,4.03
2022-08-16T22:14:02.936Z,4.03
2022-08-16T22:16:32.334Z,3.70
2022-08-16T22:18:59.976Z,4.15
2022-08-16T22:21:27.642Z,4.20
2022-08-16T22:23:57.460Z,3.80
2022-08-16T22:26:30.349Z,4.10
2022-08-16T22:28:59.892Z,3.80
2022-08-16T22:31:29.052Z,4.05
2022-08-16T22:33:57.902Z,4.00
2022-08-16T22:36:28.357Z,3.75
2022-08-16T22:38:57.947Z,4.05
2022-08-16T22:41:26.168Z,4.22
2022-08-16T22:43:53.793Z,3.95
2022-08-16T22:46:21.407Z,4.47
2022-08-16T22:48:51.021Z,4.32
2022-08-16T22:51:18.714Z,3.95
2022-08-16T22:53:46.372Z,4.00
2022-08-16T22:56:15.379Z,3.90
2022-08-16T22:58:45.385Z,3.83
2022-08-16T23:01:13.152Z,3.90
2022-08-16T23:03:40.892Z,4.35
2022-08-16T23:06:10.748Z,3.92
2022-08-16T23:08:40.754Z,3.85
2022-08-16T23:11:08.988Z,4.30
2022-08-16T23:13:50.046Z,3.85
2022-08-16T23:16:22.128Z,4.00
2022-08-16T23:18:49.805Z,4.07
2022-08-16T23:21:18.867Z,3.70
2022-08-16T23:23:48.731Z,3.83
2022-08-16T23:26:47.203Z,4.13
2022-08-16T23:29:05.289Z,3.78
2022-08-16T23:31:33.115Z,3.60
2022-08-16T23:34:00.769Z,4.18
2022-08-16T23:36:34.675Z,3.70
2022-08-16T23:39:03.915Z,4.05
2022-08-16T23:41:33.879Z,4.20
2022-08-16T23:44:01.937Z,3.92
2022-08-16T23:46:49.646Z,3.65
2022-08-16T23:50:02.707Z,3.60
2022-08-16T23:52:08.906Z,3.72
2022-08-16T23:54:36.560Z,3.90
2022-08-16T23:57:04.198Z,4.13
2022-08-16T23:59:52.266Z,3.80
